Time;durP1;ratioP1;P1;durP2;ratioP2;P2;SDS_P1;SDS_P2;PMS_P1;PMS_P2;Temp;Humidity;BMP_temperature;BMP_pressure;BME280_temperature;BME280_humidity;BME280_pressure;Samples;Min_cycle;Max_cycle;Signal;HPM_P1;HPM_P2
2021/12/07 00:02:08;;;;;;;46.53;24.50;;;2.80;99.90;;;;;;5017414;28;20117;-67
2021/12/07 00:04:34;;;;;;;47.15;25.40;;;2.70;99.90;;;;;;5000116;28;20056;-67
2021/12/07 00:07:00;;;;;;;46.38;24.13;;;2.70;99.90;;;;;;4989565;28;20042;-66
2021/12/07 00:09:26;;;;;;;47.90;24.55;;;2.70;99.90;;;;;;4997909;28;20050;-66
2021/12/07 00:11:51;;;;;;;45.80;25.60;;;2.70;99.90;;;;;;4980651;28;20534;-67
2021/12/07 00:14:25;;;;;;;40.90;23.33;;;2.60;99.90;;;;;;4980608;28;20406;-67
2021/12/07 00:16:54;;;;;;;;;;;2.80;99.90;;;;;;4981197;28;20057;-66
2021/12/07 00:19:20;;;;;;;43.88;24.10;;;2.50;99.90;;;;;;4980784;28;19933;-66
2021/12/07 00:21:46;;;;;;;45.90;23.45;;;2.50;99.90;;;;;;4997692;28;20479;-66
2021/12/07 00:24:13;;;;;;;49.33;24.48;;;2.50;99.90;;;;;;4980410;28;20050;-68
2021/12/07 00:26:40;;;;;;;49.65;25.52;;;2.50;99.90;;;;;;4980391;28;20050;-67
2021/12/07 00:29:07;;;;;;;50.05;25.17;;;2.60;99.90;;;;;;4995750;28;20134;-66
2021/12/07 00:31:43;;;;;;;45.58;23.80;;;2.40;99.90;;;;;;4980280;28;20081;-67
2021/12/07 00:34:24;;;;;;;46.58;24.67;;;2.40;99.90;;;;;;4980371;28;20054;-67
2021/12/07 00:36:50;;;;;;;44.38;23.30;;;2.40;99.90;;;;;;4988772;28;20046;-66
2021/12/07 00:39:19;;;;;;;42.90;22.15;;;2.40;99.90;;;;;;5016764;28;20041;-67
2021/12/07 00:41:47;;;;;;;44.47;24.45;;;2.40;99.90;;;;;;5016461;28;20050;-67
2021/12/07 00:44:13;;;;;;;50.22;24.50;;;2.40;99.90;;;;;;5016877;28;20431;-67
2021/12/07 00:46:39;;;;;;;45.30;23.85;;;2.40;99.90;;;;;;5016566;28;20450;-66
2021/12/07 00:49:05;;;;;;;47.78;24.20;;;2.30;99.90;;;;;;5016186;28;20060;-67
2021/12/07 00:51:31;;;;;;;45.03;24.20;;;2.30;99.90;;;;;;5016400;28;20058;-66
2021/12/07 00:53:56;;;;;;;49.72;23.65;;;2.30;99.90;;;;;;5016887;28;20049;-66
2021/12/07 00:56:22;;;;;;;45.60;23.30;;;2.30;99.90;;;;;;5015384;28;20085;-66
2021/12/07 00:58:49;;;;;;;49.83;24.95;;;2.30;99.90;;;;;;5016443;28;20069;-68
2021/12/07 01:01:16;;;;;;;41.47;22.48;;;2.30;99.90;;;;;;4999319;28;20050;-67
2021/12/07 01:03:43;;;;;;;46.17;24.17;;;2.30;99.90;;;;;;4998861;28;20187;-67
2021/12/07 01:06:21;;;;;;;41.50;23.17;;;2.20;99.90;;;;;;4992941;28;20057;-68
2021/12/07 01:25:04;;;;;;;37.75;22.20;;;1.90;99.90;;;;;;4978989;28;20057;-68
2021/12/07 01:27:30;;;;;;;37.40;21.10;;;1.80;99.90;;;;;;4978761;28;20046;-66
2021/12/07 01:35:43;;;;;;;38.08;21.92;;;1.80;99.90;;;;;;4978539;28;20054;-67
2021/12/07 01:59:51;;;;;;;54.60;23.92;;;1.60;99.90;;;;;;4935788;29;20142;-67
2021/12/07 02:02:20;;;;;;;41.58;21.70;;;1.50;99.90;;;;;;4983244;28;20490;-69
2021/12/07 02:04:46;;;;;;;46.25;22.52;;;1.50;99.90;;;;;;4995532;28;20450;-66
2021/12/07 02:07:13;;;;;;;40.97;22.65;;;1.60;99.90;;;;;;4994135;28;20143;-67
2021/12/07 02:09:43;;;;;;;41.72;22.42;;;1.60;99.90;;;;;;4997863;28;20065;-68
2021/12/07 02:12:11;;;;;;;48.65;23.30;;;1.50;99.90;;;;;;4995920;28;20092;-66
2021/12/07 02:14:37;;;;;;;37.22;20.73;;;1.50;99.90;;;;;;4997616;28;20054;-66
2021/12/07 02:17:06;;;;;;;39.60;22.27;;;1.50;99.90;;;;;;4997953;28;20435;-66
2021/12/07 02:19:32;;;;;;;36.75;21.73;;;1.50;99.90;;;;;;4997462;28;20593;-67
2021/12/07 02:21:59;;;;;;;36.25;20.73;;;1.80;99.90;;;;;;4989569;28;20129;-70
2021/12/07 02:24:26;;;;;;;46.42;22.00;;;1.40;99.90;;;;;;4978384;28;20046;-69
2021/12/07 02:26:52;;;;;;;33.65;20.60;;;1.50;99.90;;;;;;4978150;28;20105;-68
2021/12/07 02:29:19;;;;;;;44.78;22.98;;;1.50;99.90;;;;;;4995411;28;20035;-68
2021/12/07 02:31:44;;;;;;;35.88;20.45;;;1.50;99.90;;;;;;5014813;28;20398;-67
2021/12/07 02:34:11;;;;;;;35.83;20.42;;;1.50;99.90;;;;;;4981725;28;20045;-68
2021/12/07 02:36:37;;;;;;;37.30;21.90;;;1.50;99.90;;;;;;4997345;28;20104;-68
2021/12/07 02:39:05;;;;;;;32.47;19.58;;;1.50;99.90;;;;;;4998410;28;20394;-67
2021/12/07 02:41:31;;;;;;;32.78;20.10;;;1.50;99.90;;;;;;4997828;28;20041;-69
2021/12/07 02:43:56;;;;;;;32.28;19.40;;;1.50;99.90;;;;;;4997945;28;20064;-66
2021/12/07 02:46:22;;;;;;;33.78;19.83;;;1.60;99.90;;;;;;5014778;28;20038;-67
2021/12/07 02:48:47;;;;;;;36.35;20.65;;;1.50;99.90;;;;;;4998012;28;20137;-67
2021/12/07 02:51:13;;;;;;;36.13;19.75;;;1.50;99.90;;;;;;4997380;28;20506;-68
2021/12/07 02:53:38;;;;;;;31.77;19.23;;;1.50;99.90;;;;;;4998246;28;20053;-67
2021/12/07 02:56:07;;;;;;;31.38;19.15;;;1.60;99.90;;;;;;4981311;28;20100;-69
2021/12/07 02:58:33;;;;;;;41.58;20.98;;;1.70;99.90;;;;;;4997939;28;20117;-68
2021/12/07 03:01:08;;;;;;;31.98;19.95;;;1.60;99.90;;;;;;4984161;28;20468;-68
2021/12/07 03:03:39;;;;;;;38.83;21.80;;;1.60;99.90;;;;;;4977835;28;20061;-67
2021/12/07 03:06:17;;;;;;;38.00;21.15;;;1.60;99.90;;;;;;4995252;28;20050;-66
2021/12/07 03:09:13;;;;;;;40.72;21.60;;;1.60;99.90;;;;;;4978950;28;20343;-67
2021/12/07 03:27:58;;;;;;;44.25;22.90;;;1.60;99.90;;;;;;4998673;28;20058;-66
2021/12/07 03:30:25;;;;;;;39.38;22.38;;;1.60;99.90;;;;;;4989241;28;20454;-66
2021/12/07 03:32:51;;;;;;;37.92;22.38;;;1.60;99.90;;;;;;5000133;28;20080;-66
2021/12/07 03:35:17;;;;;;;39.75;21.58;;;1.60;99.90;;;;;;5001173;28;20069;-67
2021/12/07 03:37:43;;;;;;;35.95;22.52;;;1.60;99.90;;;;;;5018315;28;20390;-66
2021/12/07 03:40:10;;;;;;;50.17;23.95;;;1.60;99.90;;;;;;5000971;28;20052;-68
2021/12/07 03:42:36;;;;;;;39.00;22.33;;;1.50;99.90;;;;;;5000471;28;20064;-67
2021/12/07 03:45:05;;;;;;;38.38;22.35;;;1.50;99.90;;;;;;5017427;28;20461;-69
2021/12/07 03:47:31;;;;;;;40.15;23.00;;;1.50;99.90;;;;;;5017262;28;20050;-65
2021/12/07 03:49:57;;;;;;;44.97;22.58;;;1.50;99.90;;;;;;5000300;28;20064;-66
2021/12/07 03:52:22;;;;;;;34.85;21.50;;;1.50;99.90;;;;;;5000615;28;20068;-66
2021/12/07 03:54:48;;;;;;;33.95;20.08;;;1.50;99.90;;;;;;4984547;28;20077;-67
2021/12/07 03:57:14;;;;;;;47.15;24.23;;;1.50;99.90;;;;;;5017814;28;20049;-65
2021/12/07 03:59:40;;;;;;;36.25;21.40;;;1.50;99.90;;;;;;5015176;28;20160;-66
2021/12/07 04:02:07;;;;;;;40.10;22.13;;;1.90;99.90;;;;;;4997805;28;20177;-67
2021/12/07 04:04:33;;;;;;;41.25;22.17;;;1.50;99.90;;;;;;4980786;28;20054;-68
2021/12/07 04:06:59;;;;;;;44.28;23.15;;;1.50;99.90;;;;;;4998092;28;20050;-66
2021/12/07 04:09:24;;;;;;;34.92;20.95;;;1.50;99.90;;;;;;4980650;28;20050;-65
2021/12/07 04:11:50;;;;;;;56.70;21.80;;;1.40;99.90;;;;;;4997853;28;20061;-66
2021/12/07 04:14:16;;;;;;;46.30;22.05;;;1.40;99.90;;;;;;4998044;28;20085;-66
2021/12/07 04:16:41;;;;;;;37.60;21.33;;;1.40;99.90;;;;;;4996016;28;20462;-66
2021/12/07 04:19:07;;;;;;;38.95;21.60;;;1.30;99.90;;;;;;4980396;28;20483;-66
2021/12/07 04:21:32;;;;;;;41.72;21.52;;;1.30;99.90;;;;;;4997828;28;20049;-67
2021/12/07 04:23:58;;;;;;;36.53;20.45;;;1.30;99.90;;;;;;4980526;28;20105;-65
2021/12/07 04:26:25;;;;;;;61.70;23.75;;;1.30;99.90;;;;;;4979962;28;20093;-68
2021/12/07 04:28:51;;;;;;;37.72;21.15;;;1.30;99.90;;;;;;4981148;28;20061;-66
2021/12/07 04:31:17;;;;;;;43.90;22.33;;;1.30;99.90;;;;;;5011736;28;20446;-65
2021/12/07 04:33:43;;;;;;;39.80;20.63;;;1.60;99.90;;;;;;4999875;28;20046;-66
2021/12/07 04:36:10;;;;;;;42.30;21.33;;;1.20;99.90;;;;;;4999746;28;20482;-65
2021/12/07 04:38:36;;;;;;;34.83;19.00;;;1.10;99.90;;;;;;4999617;28;20053;-66
2021/12/07 04:41:03;;;;;;;35.78;19.58;;;1.10;99.90;;;;;;4999130;28;20045;-64
2021/12/07 04:43:29;;;;;;;59.17;21.65;;;1.10;99.90;;;;;;5017121;28;20119;-67
2021/12/07 04:57:37;;;;;;;44.67;20.90;;;1.00;99.90;;;;;;5016892;28;20065;-67
2021/12/07 04:59:23;;;;;;;47.30;21.55;;;1.00;99.90;;;;;;4996794;28;20072;-67
2021/12/07 05:01:49;;;;;;;43.92;19.95;;;1.00;99.90;;;;;;4979439;28;20046;-67
2021/12/07 05:04:23;;;;;;;53.97;21.92;;;1.00;99.90;;;;;;4979549;28;20048;-65
2021/12/07 05:06:52;;;;;;;50.25;20.92;;;1.00;99.90;;;;;;4983662;28;20058;-68
2021/12/07 05:14:37;;;;;;;45.87;20.53;;;1.10;99.90;;;;;;4996470;28;20054;-65
2021/12/07 05:38:42;;;;;;;50.85;18.98;;;0.90;99.90;;;;;;5015578;28;20462;-66
2021/12/07 05:41:08;;;;;;;58.25;19.52;;;0.80;99.90;;;;;;5014228;28;20050;-66
2021/12/07 05:43:35;;;;;;;38.97;16.83;;;0.90;99.90;;;;;;4997357;28;20060;-66
2021/12/07 05:46:02;;;;;;;76.65;20.27;;;1.20;99.90;;;;;;4997884;28;20113;-68
2021/12/07 05:48:28;;;;;;;43.05;18.00;;;0.80;99.90;;;;;;4998000;28;20470;-67
2021/12/07 05:50:54;;;;;;;38.42;17.33;;;0.80;99.90;;;;;;4998820;28;20085;-68
2021/12/07 05:53:19;;;;;;;41.00;18.25;;;0.80;99.90;;;;;;4998490;28;20362;-65
2021/12/07 05:55:45;;;;;;;42.38;17.45;;;0.80;99.90;;;;;;4997987;28;20042;-66
2021/12/07 05:58:12;;;;;;;50.58;17.55;;;0.70;99.90;;;;;;4997871;28;20478;-68
2021/12/07 06:00:42;;;;;;;45.17;17.20;;;0.70;99.90;;;;;;4998344;28;20060;-68
2021/12/07 06:03:09;;;;;;;44.90;17.63;;;0.70;99.90;;;;;;5015604;28;20072;-67
2021/12/07 06:05:35;;;;;;;42.50;16.73;;;0.70;99.90;;;;;;4998283;28;20430;-67
2021/12/07 06:08:02;;;;;;;37.45;16.70;;;0.70;99.90;;;;;;4998653;28;20050;-67
2021/12/07 06:10:28;;;;;;;39.70;17.70;;;0.70;99.90;;;;;;4997774;28;20133;-67
2021/12/07 06:12:54;;;;;;;46.85;18.30;;;0.90;99.90;;;;;;4978342;28;20129;-67
2021/12/07 06:15:22;;;;;;;35.38;17.02;;;0.80;99.90;;;;;;4995411;28;20467;-69
2021/12/07 06:17:49;;;;;;;35.97;17.17;;;0.90;99.90;;;;;;4979113;28;20046;-69
2021/12/07 06:20:16;;;;;;;27.65;15.45;;;0.90;99.90;;;;;;4995587;28;20092;-69
2021/12/07 06:22:42;;;;;;;37.10;16.23;;;0.90;99.90;;;;;;4978313;28;20046;-67
2021/12/07 06:25:07;;;;;;;40.53;16.23;;;0.90;99.90;;;;;;4995544;28;20039;-67
2021/12/07 06:27:34;;;;;;;35.50;16.30;;;0.90;99.90;;;;;;4976812;28;20108;-68
2021/12/07 06:30:00;;;;;;;41.42;16.15;;;0.90;99.90;;;;;;4977628;28;20042;-67
2021/12/07 06:32:26;;;;;;;37.22;16.17;;;0.90;99.90;;;;;;4992637;28;20057;-69
2021/12/07 06:34:52;;;;;;;34.90;14.95;;;0.90;99.90;;;;;;4996318;28;20046;-67
2021/12/07 06:37:18;;;;;;;53.33;16.92;;;0.90;99.90;;;;;;4995204;28;20362;-67
2021/12/07 06:39:44;;;;;;;36.30;15.52;;;0.90;99.90;;;;;;4972966;28;20179;-67
2021/12/07 06:42:11;;;;;;;54.00;17.05;;;0.80;99.90;;;;;;4972953;28;20051;-68
2021/12/07 06:44:36;;;;;;;37.30;15.27;;;0.80;99.90;;;;;;4994973;28;20435;-67
2021/12/07 06:47:02;;;;;;;36.35;15.93;;;0.80;99.90;;;;;;4994830;28;20077;-67
2021/12/07 06:49:28;;;;;;;37.15;15.63;;;0.70;99.90;;;;;;4977376;28;20050;-67
2021/12/07 06:51:54;;;;;;;30.55;14.75;;;0.70;99.90;;;;;;4994840;28;20133;-68
2021/12/07 06:54:19;;;;;;;43.65;14.95;;;0.70;99.90;;;;;;4979816;28;20363;-68
2021/12/07 06:56:45;;;;;;;37.30;14.50;;;1.40;99.90;;;;;;4998648;28;20054;-68
2021/12/07 06:59:11;;;;;;;48.63;16.08;;;0.70;99.90;;;;;;4977962;28;20046;-67
2021/12/07 07:01:37;;;;;;;29.83;14.18;;;0.70;99.90;;;;;;4993378;28;20054;-68
2021/12/07 07:04:03;;;;;;;39.13;14.43;;;0.70;99.90;;;;;;4976819;28;20053;-67
2021/12/07 07:06:28;;;;;;;31.17;12.65;;;0.70;99.90;;;;;;4979781;28;20364;-67
2021/12/07 07:08:54;;;;;;;29.00;13.30;;;0.70;99.90;;;;;;4981759;28;20054;-66
2021/12/07 07:11:20;;;;;;;36.95;15.25;;;0.60;99.90;;;;;;4980934;28;20038;-66
2021/12/07 07:13:47;;;;;;;37.25;13.52;;;0.60;99.90;;;;;;4998341;28;20043;-68
2021/12/07 07:16:13;;;;;;;38.38;15.48;;;0.60;99.90;;;;;;4998540;28;20459;-70
2021/12/07 07:18:39;;;;;;;36.67;14.23;;;0.60;99.90;;;;;;4981767;28;20057;-66
2021/12/07 07:21:06;;;;;;;47.08;14.90;;;0.60;99.90;;;;;;4997983;28;20038;-66
2021/12/07 07:23:32;;;;;;;47.72;14.57;;;0.60;99.90;;;;;;4981272;28;20050;-67
2021/12/07 07:25:58;;;;;;;28.20;13.35;;;0.60;99.90;;;;;;4998270;28;20042;-67
2021/12/07 07:28:26;;;;;;;47.33;15.63;;;0.50;99.90;;;;;;4985405;28;20064;-65
2021/12/07 07:30:51;;;;;;;38.67;14.18;;;0.50;99.90;;;;;;4998322;28;20348;-68
2021/12/07 07:33:17;;;;;;;42.45;15.80;;;0.50;99.90;;;;;;4997533;28;20052;-66
2021/12/07 07:35:43;;;;;;;51.72;14.88;;;0.60;99.90;;;;;;4961443;28;20458;-68
2021/12/07 07:38:08;;;;;;;38.10;13.88;;;0.60;99.90;;;;;;4997441;28;20061;-67
2021/12/07 07:40:34;;;;;;;36.85;13.98;;;0.60;99.90;;;;;;4980738;28;20081;-66
2021/12/07 07:43:00;;;;;;;31.58;14.70;;;0.50;99.90;;;;;;4997630;28;20080;-67
2021/12/07 07:45:25;;;;;;;35.60;15.73;;;0.50;99.90;;;;;;4980977;28;20046;-66
2021/12/07 07:47:52;;;;;;;40.45;15.82;;;0.50;99.90;;;;;;4980939;28;20046;-68
2021/12/07 07:50:17;;;;;;;28.83;13.57;;;0.50;99.90;;;;;;4998147;28;20055;-67
2021/12/07 07:52:43;;;;;;;41.03;15.73;;;0.50;99.90;;;;;;4997866;28;20053;-67
2021/12/07 07:55:11;;;;;;;44.60;16.33;;;0.50;99.90;;;;;;4997595;28;20104;-68
2021/12/07 07:57:36;;;;;;;38.08;15.05;;;0.60;99.90;;;;;;4980710;28;20086;-67
2021/12/07 08:00:05;;;;;;;38.03;15.65;;;0.60;99.90;;;;;;4980957;28;20077;-68
2021/12/07 08:02:31;;;;;;;36.53;15.57;;;0.60;99.90;;;;;;4996965;28;20486;-68
2021/12/07 08:04:56;;;;;;;42.30;15.73;;;0.70;99.90;;;;;;4979931;28;20140;-66
2021/12/07 08:07:22;;;;;;;49.25;16.77;;;0.70;99.90;;;;;;4996970;28;20042;-67
2021/12/07 08:09:47;;;;;;;53.80;17.08;;;0.60;99.90;;;;;;4996946;28;20485;-68
2021/12/07 08:12:13;;;;;;;44.72;16.20;;;0.70;99.90;;;;;;4980083;28;20065;-68
2021/12/07 08:14:39;;;;;;;59.40;15.98;;;0.70;99.90;;;;;;4964411;28;20042;-67
2021/12/07 08:17:05;;;;;;;45.78;16.05;;;0.70;99.90;;;;;;4980197;28;20379;-68
2021/12/07 08:19:30;;;;;;;43.53;14.18;;;0.70;99.90;;;;;;4997026;28;20038;-68
2021/12/07 08:21:56;;;;;;;45.28;14.88;;;1.30;99.90;;;;;;4980450;28;20077;-68
2021/12/07 08:24:22;;;;;;;45.58;14.77;;;0.70;99.90;;;;;;4979467;28;20042;-68
2021/12/07 08:26:47;;;;;;;42.15;14.45;;;0.70;99.90;;;;;;4997208;28;20046;-67
2021/12/07 08:29:13;;;;;;;40.63;14.23;;;0.70;99.90;;;;;;4980112;28;20054;-68
2021/12/07 08:31:38;;;;;;;407.05;33.08;;;0.70;99.90;;;;;;4980377;28;20058;-67
2021/12/07 08:34:05;;;;;;;225.75;21.80;;;0.70;99.90;;;;;;4980183;28;20130;-67
2021/12/07 08:36:31;;;;;;;60.20;15.43;;;0.80;99.90;;;;;;4986018;28;20053;-68
2021/12/07 08:38:56;;;;;;;53.15;15.02;;;0.80;99.90;;;;;;4979797;28;20058;-68
2021/12/07 08:41:23;;;;;;;63.47;18.17;;;0.80;99.90;;;;;;4997294;28;20046;-68
2021/12/07 08:43:49;;;;;;;58.97;19.35;;;0.80;99.90;;;;;;4996495;28;20186;-68
2021/12/07 08:46:16;;;;;;;58.03;21.17;;;0.80;99.90;;;;;;5002842;28;20069;-68
2021/12/07 08:48:43;;;;;;;58.60;19.52;;;0.80;99.90;;;;;;4978670;28;20061;-68
2021/12/07 08:51:11;;;;;;;50.35;18.83;;;0.90;99.90;;;;;;5006351;28;20054;-68
2021/12/07 08:53:44;;;;;;;56.33;16.90;;;0.90;99.90;;;;;;4979288;28;20047;-69
2021/12/07 09:01:38;;;;;;;57.65;17.73;;;0.90;99.90;;;;;;4996824;28;20372;-67
2021/12/07 09:04:04;;;;;;;46.53;16.85;;;1.00;99.90;;;;;;4979345;28;20085;-69
2021/12/07 09:06:31;;;;;;;59.42;16.45;;;1.00;99.90;;;;;;4984075;28;20176;-67
2021/12/07 09:08:57;;;;;;;50.50;16.17;;;1.60;99.90;;;;;;4984424;28;20049;-68
2021/12/07 09:11:23;;;;;;;50.95;14.90;;;1.00;99.90;;;;;;4996671;28;20396;-67
2021/12/07 09:13:49;;;;;;;55.08;15.73;;;1.10;99.90;;;;;;4975378;28;20054;-67
2021/12/07 09:16:17;;;;;;;38.22;15.05;;;1.10;99.90;;;;;;4978507;28;20050;-66
2021/12/07 09:18:44;;;;;;;49.08;15.27;;;1.20;99.90;;;;;;4995192;28;20450;-68
2021/12/07 09:21:10;;;;;;;38.17;15.45;;;1.10;99.90;;;;;;4996045;28;20110;-67
2021/12/07 09:23:36;;;;;;;37.72;15.73;;;1.20;99.90;;;;;;4978174;28;20038;-67
2021/12/07 09:26:03;;;;;;;41.55;15.60;;;1.20;99.90;;;;;;4996046;28;20465;-66
2021/12/07 09:28:29;;;;;;;57.47;17.25;;;1.30;99.90;;;;;;4996181;28;20068;-67
2021/12/07 09:30:55;;;;;;;37.42;14.57;;;1.60;99.90;;;;;;4978947;28;20397;-66
2021/12/07 09:33:26;;;;;;;45.20;15.38;;;1.30;99.90;;;;;;4978824;28;20046;-68
2021/12/07 09:35:54;;;;;;;36.65;14.68;;;1.40;99.90;;;;;;4979148;28;20053;-66
2021/12/07 09:38:21;;;;;;;63.47;16.13;;;1.40;99.90;;;;;;4996146;28;20046;-67
2021/12/07 09:40:47;;;;;;;48.35;15.73;;;1.50;99.90;;;;;;4979129;28;20441;-67
2021/12/07 09:43:14;;;;;;;49.67;15.27;;;1.50;99.90;;;;;;4978933;28;20053;-67
2021/12/07 09:45:42;;;;;;;40.75;15.75;;;1.50;99.90;;;;;;4978491;28;20057;-68
2021/12/07 09:48:11;;;;;;;45.28;15.32;;;1.60;99.90;;;;;;4978297;28;20466;-69
2021/12/07 09:50:39;;;;;;;47.38;16.00;;;1.70;99.90;;;;;;4996114;28;20189;-68
2021/12/07 09:53:07;;;;;;;44.80;16.08;;;1.70;99.90;;;;;;4978357;28;20046;-66
2021/12/07 09:55:36;;;;;;;40.25;15.32;;;1.70;99.90;;;;;;4995983;28;20359;-65
2021/12/07 09:58:02;;;;;;;51.78;16.58;;;1.80;99.90;;;;;;4995418;28;20378;-67
2021/12/07 10:00:28;;;;;;;44.88;15.13;;;1.90;99.90;;;;;;4977984;28;20050;-66
2021/12/07 10:02:54;;;;;;;39.47;15.00;;;1.90;99.90;;;;;;4995566;28;20054;-68
2021/12/07 10:05:22;;;;;;;43.95;14.70;;;1.90;99.90;;;;;;4978563;28;20434;-66
2021/12/07 10:07:49;;;;;;;37.03;13.90;;;2.00;99.90;;;;;;4995391;28;20475;-66
2021/12/07 10:10:25;;;;;;;38.92;13.35;;;2.10;99.90;;;;;;4978638;28;20375;-68
2021/12/07 10:12:51;;;;;;;41.72;15.90;;;2.10;99.90;;;;;;4995048;28;20050;-68
2021/12/07 10:15:17;;;;;;;37.22;14.48;;;2.20;99.90;;;;;;4978409;28;20034;-67
2021/12/07 10:17:57;;;;;;;40.45;14.93;;;2.30;99.90;;;;;;4995109;28;20165;-68
2021/12/07 10:20:44;;;;;;;41.30;13.95;;;2.40;99.90;;;;;;4978420;28;20054;-67
2021/12/07 10:23:16;;;;;;;44.45;15.05;;;2.60;99.90;;;;;;4977931;28;20054;-68
2021/12/07 10:25:47;;;;;;;40.20;14.07;;;2.80;99.90;;;;;;4995206;28;20057;-68
2021/12/07 10:28:23;;;;;;;50.47;13.60;;;3.00;99.90;;;;;;4979275;28;20434;-67
2021/12/07 10:30:50;;;;;;;30.77;12.25;;;3.10;99.90;;;;;;4984768;28;20089;-67
2021/12/07 10:33:35;;;;;;;40.13;12.63;;;3.10;99.90;;;;;;5001675;28;20046;-66
2021/12/07 10:36:11;;;;;;;27.13;10.88;;;3.10;99.90;;;;;;5001537;28;20050;-66
2021/12/07 10:38:38;;;;;;;27.90;10.27;;;3.10;99.90;;;;;;4984612;28;20054;-67
2021/12/07 10:41:10;;;;;;;25.98;10.30;;;3.10;99.90;;;;;;4984313;28;20185;-66
2021/12/07 10:43:47;;;;;;;29.77;10.90;;;3.10;99.90;;;;;;4984405;28;20046;-68
2021/12/07 10:46:38;;;;;;;27.23;10.57;;;3.10;99.90;;;;;;5012073;28;20041;-67
2021/12/07 10:49:15;;;;;;;27.83;10.63;;;3.10;99.90;;;;;;4984209;28;20112;-68
2021/12/07 10:51:54;;;;;;;26.17;9.85;;;3.10;99.90;;;;;;4984523;28;20054;-67
2021/12/07 10:54:21;;;;;;;32.65;10.38;;;3.10;99.90;;;;;;4984369;28;20053;-69
2021/12/07 10:56:46;;;;;;;24.08;10.10;;;3.20;99.90;;;;;;5001530;28;20054;-68
2021/12/07 10:59:13;;;;;;;27.73;9.95;;;3.10;99.90;;;;;;4984358;28;20056;-68
2021/12/07 11:01:42;;;;;;;30.55;9.52;;;3.20;99.90;;;;;;5001707;28;20096;-69
2021/12/07 11:04:29;;;;;;;23.98;9.73;;;3.20;99.90;;;;;;4983976;28;20065;-69
2021/12/07 11:07:18;;;;;;;28.10;9.80;;;3.20;99.90;;;;;;4984445;28;20062;-68
2021/12/07 11:10:15;;;;;;;27.38;9.70;;;3.30;99.90;;;;;;4984096;28;20121;-67
2021/12/07 11:15:35;;;;;;;16.58;8.35;;;3.30;99.90;;;;;;4990727;28;20166;-67
2021/12/07 11:18:11;;;;;;;22.27;8.63;;;3.30;99.90;;;;;;4984302;28;20061;-67
2021/12/07 11:20:38;;;;;;;33.97;8.85;;;3.30;99.90;;;;;;5001039;28;20042;-67
2021/12/07 11:23:23;;;;;;;25.98;8.55;;;3.40;99.90;;;;;;4984482;28;20038;-68
2021/12/07 11:31:16;;;;;;;24.08;9.02;;;3.50;99.90;;;;;;4983869;28;20065;-67
2021/12/07 11:33:42;;;;;;;23.17;8.02;;;3.50;99.90;;;;;;5001098;28;20070;-67
2021/12/07 11:36:23;;;;;;;25.83;9.15;;;3.50;99.90;;;;;;5001306;28;20483;-68
2021/12/07 11:38:49;;;;;;;29.73;9.30;;;3.60;99.90;;;;;;4984194;28;20471;-67
2021/12/07 11:41:20;;;;;;;28.92;9.90;;;3.60;99.90;;;;;;4980935;28;20061;-69
2021/12/07 11:43:55;;;;;;;22.48;9.05;;;3.60;99.90;;;;;;4998007;28;20324;-67
2021/12/07 11:46:23;;;;;;;33.05;9.10;;;3.50;99.90;;;;;;4997684;28;20058;-66
2021/12/07 11:48:49;;;;;;;26.30;8.18;;;3.70;99.90;;;;;;4997953;28;20054;-66
2021/12/07 11:51:15;;;;;;;32.10;9.52;;;3.70;99.90;;;;;;4997539;28;20468;-67
2021/12/07 11:53:41;;;;;;;32.72;9.88;;;3.70;99.90;;;;;;4997955;28;20089;-68
2021/12/07 11:56:07;;;;;;;23.38;9.73;;;3.70;99.90;;;;;;4980573;28;20482;-67
2021/12/07 11:58:32;;;;;;;28.40;8.98;;;3.70;99.90;;;;;;4997778;28;20034;-67
2021/12/07 12:00:58;;;;;;;29.80;9.15;;;3.80;99.90;;;;;;4980560;28;20538;-68
2021/12/07 12:03:26;;;;;;;29.02;8.90;;;3.80;99.90;;;;;;4981157;28;20088;-67
2021/12/07 12:05:53;;;;;;;24.05;8.10;;;3.80;99.90;;;;;;4980501;28;20112;-67
2021/12/07 12:08:20;;;;;;;25.92;8.18;;;3.80;99.90;;;;;;4980837;28;20157;-68
2021/12/07 12:10:52;;;;;;;31.50;8.48;;;3.80;99.90;;;;;;4980154;28;20466;-67
2021/12/07 12:14:02;;;;;;;20.02;8.10;;;3.80;99.90;;;;;;4980253;28;20042;-67
2021/12/07 12:17:08;;;;;;;18.48;8.40;;;3.90;99.90;;;;;;4971821;28;20069;-67
2021/12/07 12:19:42;;;;;;;23.35;8.77;;;3.90;99.90;;;;;;4964156;28;20046;-68
2021/12/07 12:22:14;;;;;;;27.48;8.48;;;4.00;99.90;;;;;;4980502;28;20042;-68
2021/12/07 12:24:55;;;;;;;21.75;7.93;;;4.00;99.90;;;;;;4980049;28;20468;-67
2021/12/07 12:27:24;;;;;;;19.52;7.63;;;4.00;99.90;;;;;;4980163;28;20050;-69
2021/12/07 12:29:52;;;;;;;27.25;8.50;;;4.10;99.90;;;;;;4980886;28;20046;-67
2021/12/07 12:32:35;;;;;;;21.02;9.27;;;4.10;99.90;;;;;;4980724;28;20502;-68
2021/12/07 12:35:02;;;;;;;23.02;7.90;;;4.20;99.90;;;;;;4996796;28;20129;-67
2021/12/07 12:37:31;;;;;;;29.30;8.30;;;4.20;99.90;;;;;;4980937;28;20403;-67
2021/12/07 12:40:03;;;;;;;22.65;7.10;;;4.20;99.90;;;;;;4979973;28;20046;-69
2021/12/07 12:42:40;;;;;;;26.08;8.45;;;4.20;99.90;;;;;;4980342;28;20215;-67
2021/12/07 12:45:11;;;;;;;20.05;7.47;;;4.20;99.90;;;;;;4996944;28;20391;-69
2021/12/07 12:47:39;;;;;;;23.45;8.07;;;4.20;99.90;;;;;;4980213;28;20058;-66
2021/12/07 12:50:29;;;;;;;23.35;7.97;;;4.20;99.90;;;;;;4979661;28;20046;-69
2021/12/07 12:53:02;;;;;;;20.40;8.35;;;4.20;99.90;;;;;;4979810;28;20077;-66
2021/12/07 12:55:37;;;;;;;19.92;8.20;;;4.20;99.90;;;;;;4980231;28;20121;-67
2021/12/07 12:58:07;;;;;;;22.30;7.63;;;4.30;99.90;;;;;;4979750;28;20058;-68
2021/12/07 13:00:58;;;;;;;25.27;8.18;;;4.30;99.90;;;;;;4979559;28;20050;-68
2021/12/07 13:03:25;;;;;;;28.05;8.07;;;4.30;99.90;;;;;;4996370;28;20116;-68
2021/12/07 13:06:02;;;;;;;26.02;8.63;;;4.30;99.90;;;;;;4997794;28;20489;-67
2021/12/07 13:08:28;;;;;;;20.35;7.75;;;4.40;99.90;;;;;;4989137;28;20096;-68
2021/12/07 13:11:03;;;;;;;26.48;8.25;;;4.40;99.90;;;;;;4981577;28;20081;-66
2021/12/07 13:13:35;;;;;;;26.98;8.45;;;4.40;99.90;;;;;;4979073;28;20046;-66
2021/12/07 13:16:15;;;;;;;22.02;7.80;;;4.50;99.90;;;;;;4996370;28;20069;-66
2021/12/07 13:18:43;;;;;;;24.60;7.97;;;4.50;99.90;;;;;;4996298;28;20042;-66
2021/12/07 13:21:26;;;;;;;25.73;7.85;;;4.50;99.90;;;;;;4996328;28;20046;-68
2021/12/07 13:24:00;;;;;;;26.07;8.10;;;4.60;99.90;;;;;;4996209;28;20062;-67
2021/12/07 13:26:26;;;;;;;27.02;8.93;;;4.60;99.90;;;;;;4995861;28;20125;-67
2021/12/07 13:29:25;;;;;;;24.48;8.60;;;4.60;99.90;;;;;;4979021;28;20134;-68
2021/12/07 13:31:54;;;;;;;24.63;7.80;;;4.60;99.90;;;;;;4988592;28;20054;-67
2021/12/07 13:34:29;;;;;;;23.75;8.32;;;4.60;99.90;;;;;;4979065;28;20046;-68
2021/12/07 13:37:10;;;;;;;21.33;8.50;;;4.70;99.90;;;;;;5005452;28;20080;-67
2021/12/07 13:39:40;;;;;;;18.30;8.38;;;4.70;99.90;;;;;;4979053;28;20060;-66
2021/12/07 13:42:17;;;;;;;25.70;8.55;;;4.70;99.90;;;;;;4983027;28;20478;-68
2021/12/07 13:44:48;;;;;;;24.40;8.07;;;4.70;99.90;;;;;;4995726;28;20340;-67
2021/12/07 13:47:23;;;;;;;22.33;8.35;;;4.70;99.90;;;;;;4978887;28;20054;-69
2021/12/07 13:50:00;;;;;;;16.83;7.78;;;4.70;99.90;;;;;;4995426;28;20096;-67
2021/12/07 13:52:30;;;;;;;22.98;9.02;;;4.70;99.90;;;;;;4995798;28;20057;-67
2021/12/07 13:55:00;;;;;;;23.58;8.30;;;4.60;99.90;;;;;;4978675;28;20054;-69
2021/12/07 13:57:30;;;;;;;21.30;8.57;;;4.60;99.90;;;;;;4995426;28;20487;-67
2021/12/07 14:00:03;;;;;;;20.98;8.05;;;4.60;99.90;;;;;;4995933;28;20060;-67
2021/12/07 14:02:28;;;;;;;22.15;8.05;;;4.60;99.90;;;;;;4995536;28;20046;-67
2021/12/07 14:05:25;;;;;;;19.80;8.73;;;4.60;99.90;;;;;;4977850;28;20057;-68
2021/12/07 14:07:52;;;;;;;22.20;8.68;;;4.60;99.90;;;;;;4995800;28;20077;-66
2021/12/07 14:10:41;;;;;;;22.10;8.50;;;4.50;99.90;;;;;;4995690;28;20078;-67
2021/12/07 14:13:07;;;;;;;22.92;8.88;;;4.50;99.90;;;;;;4978854;28;20366;-67
2021/12/07 14:15:36;;;;;;;22.35;9.63;;;4.50;99.90;;;;;;4995457;28;20121;-67
2021/12/07 14:18:07;;;;;;;25.65;9.15;;;4.50;99.90;;;;;;4978431;28;20050;-66
2021/12/07 14:20:41;;;;;;;25.42;8.68;;;4.40;99.90;;;;;;4977910;28;20043;-68
2021/12/07 14:23:43;;;;;;;20.73;8.50;;;4.30;99.90;;;;;;4978786;28;20065;-66
2021/12/07 14:26:18;;;;;;;25.55;8.45;;;4.30;99.90;;;;;;4954367;29;20059;-68
2021/12/07 14:28:48;;;;;;;19.80;9.27;;;4.20;99.90;;;;;;4972536;28;20407;-68
2021/12/07 14:31:19;;;;;;;21.48;8.73;;;4.20;99.90;;;;;;4995506;28;20442;-67
2021/12/07 14:33:50;;;;;;;26.48;10.05;;;4.20;99.90;;;;;;4995278;28;20371;-68
2021/12/07 14:36:19;;;;;;;23.65;9.63;;;4.10;99.90;;;;;;4989689;28;20085;-68
2021/12/07 14:38:53;;;;;;;18.80;9.35;;;4.10;99.90;;;;;;4965358;28;20046;-67
2021/12/07 14:41:22;;;;;;;24.88;10.25;;;4.00;99.90;;;;;;4995077;28;20416;-69
2021/12/07 14:43:49;;;;;;;21.63;9.32;;;4.00;99.90;;;;;;4995482;28;20038;-68